Pierpont, South Dakota
Current Conditions -  °F | °C
As of 6:53 PM on Friday 19 Dec 2014 (Local Time) from KABR Reporting Station
Haze Haze  
Wind Chill: 21°   Ceiling: 600
Heat Index: 30°   Visibility: 6mi
Dew Point: 27°   Wind: 12mph
Humidity: 88%   Direction: 190°S
Pressure: 30.02"   Gusts: NA
Location:  45.5°N, 97.83°W
Report Text: KABR 200053Z AUTO 19010KT 6SM BR OVC006 M01/M03 A3002 RMK AO2 SLP180 T10111028
Loading
Personal Weather Stations






























Interactive Weather Map New forecast layout! Learn more

10-Day Weather Forecast

Advertisements
Track Severe Weather on mobile